San Diego, CA

5:58 PM PDT on October 24, 2014 (GMT -0700)
Montgomery | Change Station
CLOSE
Current Station
Airport
Location: San Diego Montgomery,
Elevation: 423 ft
Nearby Weather Stations
Active Advisory: Beach Hazard Statement

Elev 423 ft 32.82 °N, 117.14 °W | Updated 5 minutes ago

Clear
Clear
83 °F
Feels Like 83 °F
N
6
Wind Variable Wind from North

Today
High -- | Low -- °F
--% Chance of Precip.
Yesterday
High -- | Low -- °F
Precip. -- in
6:59 AM 6:05 PM
New Moon, 1% visible
Pressure 29.93 in
Visibility 10.0 miles
Clouds Clear
Dew Point 42 °F
Humidity 24%
Rainfall 0.00 in
Snow Depth Not available.
UV 0 out of 12
Pollen 3.80 out of 12
Ozone Moderate
PM2.5 Moderate
Flu Activity Sporadic
METAR KMYF 250053Z 35005KT 10SM CLR 28/06 A2994 RMK AO2 SLP133 T02830056

More Conditions Fewer Conditions

Pressure 29.93 in
Visibility 10.0 miles
Clouds Clear
Dew Point 42 °F
Humidity 24%
Rainfall 0.00 in
Snow Depth Not available.
UV 0 out of 12
Pollen 3.80 out of 12
Ozone Moderate
PM2.5 Moderate
Flu Activity Sporadic
METAR KMYF 250053Z 35005KT 10SM CLR 28/06 A2994 RMK AO2 SLP133 T02830056

More Conditions Fewer Conditions

10-Day Weather Forecast

Almanac

Astronomy

Oct. 24, 2014 Rise Set
Actual Time 6:59 AM PDT 6:05 PM PDT
Civil Twilight 6:34 AM PDT 6:30 PM PDT
Nautical Twilight 6:05 AM PDT 6:59 PM PDT
Astronomical Twilight 5:37 AM PDT 7:27 PM PDT
Moon 7:41 AM PDT (10/24) 6:51 PM PDT (10/24)
Length of Visible Light 11h 55m
Length of Day
11h 05m
Tomorrow will be 1m 50s shorter.
New Moon, 1% of the Moon is Illuminated
Today
New Moon
Oct 30
First Quarter
Nov 6
Full
Nov 14
Last Quarter
Nov 22
New

Today's Extremes

State Highs State Lows

Community

WunderPhotos

Upload Photos

1,764,735 photos uploaded!

WunderBlogs® & News

Nearby

Air Quality

  Air Quality AQ Index Pollutant
Yesterday Moderate
OZONE
Yesterday Moderate
PM2.5
Current Moderate
OZONE
Current Moderate
PM2.5
Friday Moderate
PM2.5
Friday Good
OZONE
Saturday Moderate
PM2.5
Saturday Good
OZONE
Sunday Good
PM2.5
Sunday Good
OZONE
Monday Good
PM2.5
Monday Good
OZONE

Snow Depth

Station Depth Elevation
Leavitt Meadows 0 in 7200 ft
Summit Meadow 0 in 9122 ft
Echo Peak 0 in 7800 ft
Ward Creek #3 12 in 6750 ft
Adin Mountain 0 in 6200 ft

Earthquake Activity

City Distance Mag. Time & Date
Maneadero, Mexico 108 miles 2.5 7:44 AM PDT
2014-10-24
San Felipe, Mexico 130 miles 3.0 11:00 PM PDT
2014-10-23
Brea, California 93 miles 2.9 3:35 PM PDT
2014-10-23
Brea, California 93 miles 2.8 3:34 PM PDT
2014-10-23
Minimum magnitude displayed is 2.5.

Coastal Water Temperatures

Place Temperature
La Jolla, CA 71.1 °F
San Diego, CA 75.0 °F

Nearby Weather Stations